createdAt,value
2018-03-27T00:00:08.840Z,0
2018-03-27T00:01:17.665Z,0
2018-03-27T00:02:26.493Z,0
2018-03-27T00:03:35.590Z,0
2018-03-27T00:04:44.653Z,0
2018-03-27T00:05:53.879Z,0
2018-03-27T00:07:02.704Z,0
2018-03-27T00:08:11.531Z,0
2018-03-27T00:09:20.357Z,0
2018-03-27T00:10:29.183Z,0
2018-03-27T00:11:38.159Z,0
2018-03-27T00:12:46.983Z,0
2018-03-27T00:13:55.810Z,0
2018-03-27T00:15:04.637Z,0
2018-03-27T00:16:13.462Z,0
2018-03-27T00:17:22.390Z,0
2018-03-27T00:18:31.218Z,0
2018-03-27T00:19:40.319Z,0
2018-03-27T00:20:49.144Z,0
2018-03-27T00:21:57.971Z,0
2018-03-27T00:23:06.954Z,0
2018-03-27T00:24:15.780Z,0
2018-03-27T00:25:24.608Z,0
2018-03-27T00:26:33.990Z,0
2018-03-27T00:27:42.814Z,0
2018-03-27T00:28:51.943Z,0
2018-03-27T00:30:00.772Z,0
2018-03-27T00:31:09.597Z,0
2018-03-27T00:32:18.423Z,0
2018-03-27T00:33:27.263Z,0
2018-03-27T00:34:36.147Z,0
2018-03-27T00:35:44.964Z,0
2018-03-27T00:36:53.794Z,0
2018-03-27T00:38:02.901Z,0
2018-03-27T00:39:11.731Z,0
2018-03-27T00:40:20.991Z,0
2018-03-27T00:41:29.822Z,0
2018-03-27T00:42:38.642Z,0
2018-03-27T00:43:47.467Z,0
2018-03-27T00:44:56.295Z,0
2018-03-27T00:46:05.598Z,0
2018-03-27T00:47:14.426Z,0
2018-03-27T00:48:23.553Z,0
2018-03-27T00:49:32.656Z,0
2018-03-27T00:50:41.483Z,0
2018-03-27T00:51:50.312Z,0
2018-03-27T00:52:59.149Z,0
2018-03-27T00:54:08.255Z,0
2018-03-27T00:55:17.076Z,0
2018-03-27T00:56:25.901Z,0
2018-03-27T00:57:34.729Z,0
2018-03-27T00:58:43.555Z,0
2018-03-27T00:59:52.381Z,0
2018-03-27T01:01:01.208Z,0
2018-03-27T01:02:10.035Z,0
2018-03-27T01:03:18.862Z,0
2018-03-27T01:04:27.687Z,0
2018-03-27T01:05:36.514Z,0
2018-03-27T01:06:45.616Z,0
2018-03-27T01:07:54.440Z,0
2018-03-27T01:09:03.595Z,0
2018-03-27T01:10:12.699Z,0
2018-03-27T01:11:21.802Z,0
2018-03-27T01:12:30.627Z,0
2018-03-27T01:13:39.452Z,0
2018-03-27T01:14:48.852Z,0
2018-03-27T01:15:57.955Z,0
2018-03-27T01:17:06.782Z,0
2018-03-27T01:18:15.606Z,0
2018-03-27T01:19:24.439Z,0
2018-03-27T01:20:33.416Z,0
2018-03-27T01:21:42.522Z,0
2018-03-27T01:22:51.348Z,0
2018-03-27T01:24:00.174Z,0
2018-03-27T01:25:09.000Z,0
2018-03-27T01:26:17.978Z,0
2018-03-27T01:27:26.803Z,0
2018-03-27T01:28:35.628Z,0
2018-03-27T01:29:44.454Z,0
2018-03-27T01:30:53.283Z,0
2018-03-27T01:32:02.207Z,0
2018-03-27T01:33:11.031Z,0
2018-03-27T01:34:19.855Z,0
2018-03-27T01:35:28.681Z,0
2018-03-27T01:36:37.509Z,0
2018-03-27T01:37:46.485Z,0
2018-03-27T01:38:55.312Z,0
2018-03-27T01:40:04.138Z,0
2018-03-27T01:41:12.963Z,0
2018-03-27T01:42:21.789Z,0
2018-03-27T01:43:30.995Z,0
2018-03-27T01:44:40.099Z,0
2018-03-27T01:45:48.925Z,0
2018-03-27T01:46:57.753Z,0
2018-03-27T01:48:06.585Z,0
2018-03-27T01:49:15.562Z,0
2018-03-27T01:50:24.385Z,0
2018-03-27T01:51:33.212Z,0
2018-03-27T01:52:42.035Z,0
2018-03-27T01:53:51.136Z,0
2018-03-27T01:55:00.111Z,0
2018-03-27T01:56:08.935Z,0
2018-03-27T01:57:17.762Z,0
2018-03-27T01:58:26.589Z,0
2018-03-27T01:59:35.415Z,0
2018-03-27T02:00:44.292Z,0
2018-03-27T02:01:53.119Z,0
2018-03-27T02:03:01.946Z,0
2018-03-27T02:04:10.772Z,0
2018-03-27T02:05:19.597Z,0
2018-03-27T02:06:28.423Z,0
2018-03-27T02:07:37.531Z,0
2018-03-27T02:08:46.365Z,0
2018-03-27T02:09:55.193Z,0
2018-03-27T02:11:04.293Z,0
2018-03-27T02:12:13.421Z,0
2018-03-27T02:13:22.518Z,0
2018-03-27T02:14:31.345Z,0
2018-03-27T02:15:40.168Z,0
2018-03-27T02:16:48.994Z,0
2018-03-27T02:17:57.818Z,0
2018-03-27T02:19:06.659Z,0
2018-03-27T02:20:15.468Z,0
2018-03-27T02:21:24.296Z,0
2018-03-27T02:22:33.126Z,0
2018-03-27T02:23:41.998Z,0
2018-03-27T02:24:50.824Z,0
2018-03-27T02:25:59.652Z,0
2018-03-27T02:27:08.479Z,0
2018-03-27T02:28:17.305Z,0
2018-03-27T02:29:26.284Z,0
2018-03-27T02:30:35.114Z,0
2018-03-27T02:31:43.938Z,0
2018-03-27T02:32:52.767Z,0
2018-03-27T02:34:01.595Z,0
2018-03-27T02:35:11.004Z,0
2018-03-27T02:36:19.835Z,0
2018-03-27T02:37:28.938Z,0
2018-03-27T02:38:38.056Z,0
2018-03-27T02:39:46.880Z,0
2018-03-27T02:40:55.756Z,0
2018-03-27T02:42:04.863Z,0
2018-03-27T02:43:13.689Z,0
2018-03-27T02:44:22.796Z,0
2018-03-27T02:45:31.621Z,0
2018-03-27T02:46:40.546Z,0
2018-03-27T02:47:49.373Z,0
2018-03-27T02:48:58.198Z,0
2018-03-27T02:50:07.585Z,0
2018-03-27T02:51:16.413Z,0
2018-03-27T02:52:25.388Z,0
2018-03-27T02:53:34.216Z,0
2018-03-27T02:54:43.042Z,0
2018-03-27T02:55:51.868Z,0
2018-03-27T02:57:00.694Z,0
2018-03-27T02:58:09.723Z,0
2018-03-27T02:59:18.835Z,0
2018-03-27T03:00:27.648Z,0
2018-03-27T03:01:36.757Z,0
2018-03-27T03:02:46.429Z,0
2018-03-27T03:03:55.555Z,0
2018-03-27T03:05:04.663Z,0
2018-03-27T03:06:13.766Z,0
2018-03-27T03:07:22.593Z,0
2018-03-27T03:08:31.418Z,0
2018-03-27T03:09:40.548Z,0
2018-03-27T03:10:49.374Z,0
2018-03-27T03:11:58.203Z,0
2018-03-27T03:13:07.027Z,0
2018-03-27T03:14:15.853Z,0
2018-03-27T03:15:24.679Z,0
2018-03-27T03:16:33.506Z,0
2018-03-27T03:17:42.331Z,0
2018-03-27T03:18:51.159Z,0
2018-03-27T03:20:00.260Z,0
2018-03-27T03:21:09.105Z,0
2018-03-27T03:22:17.914Z,0
2018-03-27T03:23:26.739Z,0
2018-03-27T03:24:36.125Z,0
2018-03-27T03:25:44.952Z,0
2018-03-27T03:26:53.976Z,0
2018-03-27T03:28:02.803Z,0
2018-03-27T03:29:11.626Z,0
2018-03-27T03:30:20.454Z,0
2018-03-27T03:31:29.278Z,0
2018-03-27T03:32:38.253Z,0
2018-03-27T03:33:47.079Z,0
2018-03-27T03:34:56.181Z,0
2018-03-27T03:36:05.012Z,0
2018-03-27T03:37:13.834Z,0
2018-03-27T03:38:23.059Z,0
2018-03-27T03:39:32.158Z,0
2018-03-27T03:40:40.986Z,0
2018-03-27T03:41:49.811Z,0
2018-03-27T03:42:58.640Z,0
2018-03-27T03:44:07.564Z,0
2018-03-27T03:45:16.388Z,0
2018-03-27T03:46:25.219Z,0
2018-03-27T03:47:34.040Z,0
2018-03-27T03:48:42.865Z,0
2018-03-27T03:49:51.941Z,0
2018-03-27T03:51:00.767Z,0
2018-03-27T03:52:09.869Z,0
2018-03-27T03:53:18.694Z,0
2018-03-27T03:54:27.520Z,0
2018-03-27T03:55:36.444Z,0
2018-03-27T03:56:45.271Z,0
2018-03-27T03:57:54.376Z,0
2018-03-27T03:59:03.198Z,0
2018-03-27T04:00:12.024Z,0
2018-03-27T04:01:21.099Z,0
2018-03-27T04:02:30.204Z,0
2018-03-27T04:03:39.321Z,0
2018-03-27T04:04:48.149Z,0
2018-03-27T04:05:56.978Z,0
2018-03-27T04:07:06.229Z,0
2018-03-27T04:08:15.053Z,0
2018-03-27T04:09:23.878Z,0
2018-03-27T04:10:32.705Z,0
2018-03-27T04:11:41.534Z,0
2018-03-27T04:12:50.508Z,0
2018-03-27T04:13:59.337Z,0
2018-03-27T04:15:08.169Z,0
2018-03-27T04:16:16.997Z,0
2018-03-27T04:17:25.823Z,0
2018-03-27T04:18:34.952Z,0
2018-03-27T04:19:43.777Z,0
2018-03-27T04:20:52.880Z,0
2018-03-27T04:22:01.706Z,0
2018-03-27T04:23:10.811Z,0
2018-03-27T04:24:20.025Z,0
2018-03-27T04:25:28.847Z,0
2018-03-27T04:26:37.674Z,0
2018-03-27T04:27:46.498Z,0
2018-03-27T04:28:55.326Z,0
2018-03-27T04:30:04.200Z,0
2018-03-27T04:31:13.028Z,0
2018-03-27T04:32:21.854Z,0
2018-03-27T04:33:30.682Z,0
2018-03-27T04:34:39.788Z,0
2018-03-27T04:35:48.661Z,0
2018-03-27T04:36:57.765Z,0
2018-03-27T04:38:06.590Z,0
2018-03-27T04:39:15.418Z,0
2018-03-27T04:40:24.244Z,0
2018-03-27T04:41:33.448Z,0
2018-03-27T04:42:42.273Z,0
2018-03-27T04:43:51.379Z,0
2018-03-27T04:45:00.484Z,4
2018-03-27T04:46:09.307Z,0
2018-03-27T04:47:18.235Z,4
2018-03-27T04:48:27.057Z,4
2018-03-27T04:49:35.880Z,4
2018-03-27T04:50:44.707Z,8
2018-03-27T04:51:53.814Z,8
2018-03-27T04:53:02.691Z,8
2018-03-27T04:54:11.519Z,8
2018-03-27T04:55:20.623Z,12
2018-03-27T04:56:29.450Z,12
2018-03-27T04:57:38.275Z,16
2018-03-27T04:58:47.511Z,16
2018-03-27T04:59:56.328Z,20
2018-03-27T05:01:05.153Z,24
2018-03-27T05:02:13.980Z,32
2018-03-27T05:03:22.806Z,36
2018-03-27T05:04:31.785Z,40
2018-03-27T05:05:40.609Z,44
2018-03-27T05:06:49.436Z,56
2018-03-27T05:07:58.262Z,60
2018-03-27T05:09:07.086Z,68
2018-03-27T05:10:15.912Z,80
2018-03-27T05:11:25.016Z,88
2018-03-27T05:12:33.842Z,100
2018-03-27T05:13:42.668Z,112
2018-03-27T05:14:51.779Z,124
2018-03-27T05:16:00.613Z,136
2018-03-27T05:17:09.718Z,152
2018-03-27T05:18:18.543Z,164
2018-03-27T05:19:27.367Z,180
2018-03-27T05:20:36.191Z,188
2018-03-27T05:21:45.068Z,204
2018-03-27T05:22:53.896Z,216
2018-03-27T05:24:02.718Z,228
2018-03-27T05:25:11.546Z,236
2018-03-27T05:26:20.654Z,248
2018-03-27T05:27:29.779Z,260
2018-03-27T05:28:38.612Z,280
2018-03-27T05:29:47.434Z,292
2018-03-27T05:30:56.539Z,304
2018-03-27T05:32:05.367Z,320
2018-03-27T05:33:14.746Z,336
2018-03-27T05:34:23.569Z,356
2018-03-27T05:35:32.395Z,372
2018-03-27T05:36:41.225Z,392
2018-03-27T05:37:50.329Z,420
2018-03-27T05:38:59.411Z,440
2018-03-27T05:40:08.236Z,460
2018-03-27T05:41:17.610Z,480
2018-03-27T05:42:26.439Z,500
2018-03-27T05:43:35.265Z,520
2018-03-27T05:44:44.489Z,540
2018-03-27T05:45:53.314Z,564
2018-03-27T05:47:02.140Z,592
2018-03-27T05:48:10.967Z,616
2018-03-27T05:49:19.794Z,632
2018-03-27T05:50:28.675Z,656
2018-03-27T05:51:37.501Z,684
2018-03-27T05:52:46.327Z,720
2018-03-27T05:53:55.174Z,752
2018-03-27T05:55:04.535Z,788
2018-03-27T05:56:13.512Z,832
2018-03-27T05:57:22.336Z,884
2018-03-27T05:58:31.168Z,932
2018-03-27T05:59:39.997Z,972
2018-03-27T06:00:49.100Z,988
2018-03-27T06:01:58.228Z,996
2018-03-27T06:03:07.052Z,1008
2018-03-27T06:04:16.158Z,1032
2018-03-27T06:05:24.982Z,1044
2018-03-27T06:06:34.090Z,1036
2018-03-27T06:07:43.767Z,1016
2018-03-27T06:08:52.880Z,988
2018-03-27T06:10:01.708Z,980
2018-03-27T06:11:10.539Z,984
2018-03-27T06:12:19.362Z,1012
2018-03-27T06:13:28.574Z,1032
2018-03-27T06:14:37.405Z,1032
2018-03-27T06:15:46.235Z,1020
2018-03-27T06:16:55.059Z,1032
2018-03-27T06:18:03.893Z,1064
2018-03-27T06:19:13.045Z,1112
2018-03-27T06:20:21.871Z,1156
2018-03-27T06:21:30.699Z,1196
2018-03-27T06:22:39.527Z,1240
2018-03-27T06:23:48.355Z,1280
2018-03-27T06:24:57.182Z,1320
2018-03-27T06:26:06.010Z,1364
2018-03-27T06:27:14.839Z,1404
2018-03-27T06:28:23.667Z,1448
2018-03-27T06:29:32.496Z,1488
2018-03-27T06:30:41.423Z,1516
2018-03-27T06:31:50.250Z,1536
2018-03-27T06:32:59.076Z,1548
2018-03-27T06:34:07.904Z,1572
2018-03-27T06:35:16.729Z,1596
2018-03-27T06:36:25.757Z,1620
2018-03-27T06:37:34.584Z,1648
2018-03-27T06:38:43.413Z,1668
2018-03-27T06:39:52.246Z,1684
2018-03-27T06:41:01.626Z,1704
2018-03-27T06:42:10.677Z,1724
2018-03-27T06:43:19.432Z,1764
2018-03-27T06:44:28.260Z,1812
2018-03-27T06:45:37.087Z,1836
2018-03-27T06:46:45.920Z,1848
2018-03-27T06:47:54.799Z,1868
2018-03-27T06:49:03.628Z,1896
2018-03-27T06:50:12.455Z,1940
2018-03-27T06:51:21.284Z,1996
2018-03-27T06:52:30.439Z,2064
2018-03-27T06:53:39.600Z,2132
2018-03-27T06:54:48.706Z,2168
2018-03-27T06:55:57.815Z,2196
2018-03-27T06:57:06.924Z,2216
2018-03-27T06:58:16.030Z,2224
2018-03-27T06:59:25.005Z,2240
2018-03-27T07:00:33.833Z,2252
2018-03-27T07:01:42.663Z,2244
2018-03-27T07:02:51.491Z,2256
2018-03-27T07:04:00.327Z,2316
2018-03-27T07:05:09.474Z,2388
2018-03-27T07:06:18.593Z,2432
2018-03-27T07:07:27.413Z,2460
2018-03-27T07:08:36.257Z,2468
2018-03-27T07:09:45.070Z,2468
2018-03-27T07:10:54.284Z,2492
2018-03-27T07:12:03.131Z,2500
2018-03-27T07:13:11.948Z,2556
2018-03-27T07:14:21.090Z,2628
2018-03-27T07:15:29.955Z,2696
2018-03-27T07:16:38.844Z,2760
2018-03-27T07:17:47.673Z,2820
2018-03-27T07:18:56.541Z,2832
2018-03-27T07:20:05.637Z,2860
2018-03-27T07:21:14.468Z,2916
2018-03-27T07:22:23.440Z,2948
2018-03-27T07:23:32.268Z,2976
2018-03-27T07:24:41.100Z,3012
2018-03-27T07:25:49.937Z,3044
2018-03-27T07:26:59.091Z,3080
2018-03-27T07:28:08.123Z,3084
2018-03-27T07:29:16.950Z,3052
2018-03-27T07:30:26.058Z,3008
2018-03-27T07:31:34.887Z,2936
2018-03-27T07:32:43.768Z,2976
2018-03-27T07:33:52.598Z,3100
2018-03-27T07:35:01.425Z,3232
2018-03-27T07:36:10.536Z,3288
2018-03-27T07:37:19.370Z,3332
2018-03-27T07:38:28.761Z,3308
2018-03-27T07:39:37.881Z,3212
2018-03-27T07:40:46.713Z,3048
2018-03-27T07:41:55.542Z,2824
2018-03-27T07:43:04.371Z,2616
2018-03-27T07:44:13.478Z,2372
2018-03-27T07:45:22.359Z,2088
2018-03-27T07:46:31.191Z,1876
2018-03-27T07:47:40.021Z,1680
2018-03-27T07:48:48.852Z,1496
2018-03-27T07:49:57.681Z,1412
2018-03-27T07:51:06.889Z,1384
2018-03-27T07:52:15.723Z,1396
2018-03-27T07:53:24.827Z,1464
2018-03-27T07:54:33.660Z,1416
2018-03-27T07:55:42.488Z,1436
2018-03-27T07:56:51.369Z,1556
2018-03-27T07:58:00.484Z,1480
2018-03-27T07:59:09.313Z,1600
2018-03-27T08:00:18.142Z,1608
2018-03-27T08:01:26.968Z,1604
2018-03-27T08:02:35.951Z,1612
2018-03-27T08:03:45.051Z,1616
2018-03-27T08:04:54.171Z,1624
2018-03-27T08:06:03.284Z,1636
2018-03-27T08:07:12.115Z,1656
2018-03-27T08:08:21.094Z,1672
2018-03-27T08:09:29.925Z,1680
2018-03-27T08:10:38.759Z,1680
2018-03-27T08:11:47.590Z,1692
2018-03-27T08:12:56.420Z,1700
2018-03-27T08:14:05.400Z,1708
2018-03-27T08:15:14.229Z,1736
2018-03-27T08:16:23.059Z,1756
2018-03-27T08:17:31.893Z,1792
2018-03-27T08:18:40.726Z,1832
2018-03-27T08:19:49.802Z,1880
2018-03-27T08:20:58.638Z,1952
2018-03-27T08:22:39.519Z,2072
2018-03-27T08:23:48.346Z,2172
2018-03-27T08:24:57.227Z,2280
2018-03-27T08:26:06.062Z,2400
2018-03-27T08:27:14.889Z,2544
2018-03-27T08:28:23.716Z,2700
2018-03-27T08:29:32.546Z,2880
2018-03-27T08:30:41.625Z,3084
2018-03-27T08:31:50.454Z,3304
2018-03-27T08:32:59.282Z,3504
2018-03-27T08:34:08.114Z,3788
2018-03-27T08:35:16.945Z,4196
2018-03-27T08:36:26.044Z,4500
2018-03-27T08:37:34.755Z,4692
2018-03-27T08:38:43.643Z,4728
2018-03-27T08:39:52.433Z,4640
2018-03-27T08:41:01.251Z,4596
2018-03-27T08:42:10.234Z,4520
2018-03-27T08:43:19.130Z,4520
2018-03-27T08:44:28.244Z,4600
2018-03-27T08:45:37.080Z,4636
2018-03-27T08:46:45.913Z,4684
2018-03-27T08:47:54.796Z,4940
2018-03-27T08:49:03.630Z,5268
2018-03-27T08:50:12.461Z,5648
2018-03-27T08:51:21.292Z,5728
2018-03-27T08:52:30.125Z,5828
2018-03-27T08:53:38.953Z,5644
2018-03-27T08:54:48.351Z,5688
2018-03-27T08:55:57.178Z,5832
2018-03-27T08:57:06.011Z,5764
2018-03-27T08:58:14.846Z,5652
2018-03-27T08:59:23.830Z,5564
2018-03-27T09:00:32.665Z,5584
2018-03-27T09:01:41.499Z,5500
2018-03-27T09:02:50.335Z,5448
2018-03-27T09:03:59.163Z,5548
2018-03-27T09:05:08.095Z,5608
2018-03-27T09:06:16.983Z,5688
2018-03-27T09:07:25.760Z,5780
2018-03-27T09:08:34.599Z,5860
2018-03-27T09:09:43.429Z,6008
2018-03-27T09:10:52.360Z,6248
2018-03-27T09:12:01.191Z,6456
2018-03-27T09:13:10.024Z,6512
2018-03-27T09:14:18.856Z,6368
2018-03-27T09:15:27.686Z,6224
2018-03-27T09:16:36.520Z,6236
2018-03-27T09:17:45.354Z,6272
2018-03-27T09:18:54.187Z,6252
2018-03-27T09:20:03.021Z,6020
2018-03-27T09:21:11.854Z,5688
2018-03-27T09:22:20.741Z,5396
2018-03-27T09:23:29.571Z,5056
2018-03-27T09:24:38.403Z,4668
2018-03-27T09:25:47.240Z,4592
2018-03-27T09:26:56.349Z,4756
2018-03-27T09:28:05.230Z,5188
2018-03-27T09:29:14.064Z,5668
2018-03-27T09:30:22.898Z,6212
2018-03-27T09:31:31.737Z,7048
2018-03-27T09:32:40.562Z,7528
2018-03-27T09:33:49.495Z,7656
2018-03-27T09:34:58.330Z,7876
2018-03-27T09:36:07.208Z,7900
2018-03-27T09:37:15.999Z,7796
2018-03-27T09:38:24.837Z,7344
2018-03-27T09:39:33.766Z,6988
2018-03-27T09:40:42.600Z,6816
2018-03-27T09:41:51.433Z,7004
2018-03-27T09:43:00.267Z,7548
2018-03-27T09:44:09.100Z,7776
2018-03-27T09:45:18.585Z,7712
2018-03-27T09:46:27.419Z,7400
2018-03-27T09:47:36.531Z,6896
2018-03-27T09:48:45.643Z,6380
2018-03-27T09:49:54.475Z,6092
2018-03-27T09:51:04.066Z,5960
2018-03-27T09:52:13.198Z,6016
2018-03-27T09:53:22.025Z,6448
2018-03-27T09:54:30.858Z,6500
2018-03-27T09:55:39.693Z,6168
2018-03-27T09:56:48.687Z,6108
2018-03-27T09:57:57.513Z,6212
2018-03-27T09:59:06.347Z,6276
2018-03-27T10:00:15.182Z,6076
2018-03-27T10:01:24.018Z,5972
2018-03-27T10:02:33.001Z,5976
2018-03-27T10:03:42.114Z,5964
2018-03-27T10:04:50.948Z,5516
2018-03-27T10:05:59.785Z,5164
2018-03-27T10:07:08.626Z,5264
2018-03-27T10:08:17.862Z,5664
2018-03-27T10:09:26.695Z,5736
2018-03-27T10:10:35.531Z,5500
2018-03-27T10:11:44.366Z,5368
2018-03-27T10:12:53.485Z,5140
2018-03-27T10:14:02.570Z,5436
2018-03-27T10:15:11.404Z,6144
2018-03-27T10:16:20.239Z,6640
2018-03-27T10:17:29.074Z,6848
2018-03-27T10:18:37.908Z,7128
2018-03-27T10:19:47.323Z,7620
2018-03-27T10:20:56.155Z,8040
2018-03-27T10:22:04.999Z,8400
2018-03-27T10:23:13.823Z,8376
2018-03-27T10:24:22.933Z,8208
2018-03-27T10:25:31.869Z,7732
2018-03-27T10:26:40.704Z,7112
2018-03-27T10:27:49.539Z,6476
2018-03-27T10:28:58.379Z,5936
2018-03-27T10:30:07.213Z,5684
2018-03-27T10:31:16.198Z,5876
2018-03-27T10:32:25.034Z,6248
2018-03-27T10:33:33.869Z,6400
2018-03-27T10:34:42.706Z,6476
2018-03-27T10:35:51.817Z,6600
2018-03-27T10:37:00.752Z,7112
2018-03-27T10:38:09.587Z,7540
2018-03-27T10:39:18.702Z,7504
2018-03-27T10:40:27.537Z,7048
2018-03-27T10:41:36.373Z,6672
2018-03-27T10:42:45.515Z,6640
2018-03-27T10:43:54.351Z,7168
2018-03-27T10:45:03.187Z,8044
2018-03-27T10:46:12.023Z,9188
2018-03-27T10:47:20.858Z,9680
2018-03-27T10:48:30.071Z,9256
2018-03-27T10:49:38.909Z,9400
2018-03-27T10:50:47.745Z,10028
2018-03-27T10:51:56.580Z,10352
2018-03-27T10:53:05.691Z,9468
2018-03-27T10:54:14.775Z,8616
2018-03-27T10:55:23.611Z,7700
2018-03-27T10:56:32.450Z,6740
2018-03-27T10:57:41.289Z,5980
2018-03-27T10:58:50.400Z,5616
2018-03-27T10:59:59.280Z,5816
2018-03-27T11:01:08.119Z,6072
2018-03-27T11:02:16.953Z,6412
2018-03-27T11:03:26.064Z,6708
2018-03-27T11:04:35.186Z,6648
2018-03-27T11:05:44.131Z,6696
2018-03-27T11:06:52.968Z,6760
2018-03-27T11:08:02.085Z,6552
2018-03-27T11:09:10.918Z,6488
2018-03-27T11:10:19.751Z,6592
2018-03-27T11:11:28.987Z,7032
2018-03-27T11:12:37.823Z,7492
2018-03-27T11:13:46.658Z,7480
2018-03-27T11:14:55.491Z,7424
2018-03-27T11:16:04.326Z,7216
2018-03-27T11:17:13.415Z,7256
2018-03-27T11:18:22.250Z,7336
2018-03-27T11:19:31.085Z,7452
2018-03-27T11:20:40.198Z,6772
2018-03-27T11:21:49.037Z,6076
2018-03-27T11:22:58.030Z,5892
2018-03-27T11:24:06.868Z,5880
2018-03-27T11:25:15.704Z,5868
2018-03-27T11:26:24.537Z,5800
2018-03-27T11:27:33.373Z,5760
2018-03-27T11:28:42.608Z,5768
2018-03-27T11:29:51.445Z,6248
2018-03-27T11:31:00.293Z,6392
2018-03-27T11:32:09.115Z,6480
2018-03-27T11:33:17.951Z,6652
2018-03-27T11:34:27.216Z,6856
2018-03-27T11:35:36.049Z,6588
2018-03-27T11:36:44.886Z,6180
2018-03-27T11:37:53.775Z,6508
2018-03-27T11:39:02.557Z,7148
2018-03-27T11:40:11.492Z,7348
2018-03-27T11:41:20.334Z,7436
2018-03-27T11:42:29.164Z,7548
2018-03-27T11:43:38.005Z,7592
2018-03-27T11:44:47.120Z,7480
2018-03-27T11:45:56.067Z,7652
2018-03-27T11:47:04.904Z,7664
2018-03-27T11:48:13.740Z,7548
2018-03-27T11:49:22.577Z,7780
2018-03-27T11:50:31.413Z,7932
2018-03-27T11:51:40.351Z,7884
2018-03-27T11:52:49.187Z,7768
2018-03-27T11:53:58.024Z,7700
2018-03-27T11:55:06.860Z,7960
2018-03-27T11:56:15.700Z,8448
2018-03-27T11:57:25.011Z,9180
2018-03-27T11:58:33.851Z,8844
2018-03-27T11:59:42.684Z,8996
2018-03-27T12:00:51.517Z,9176
2018-03-27T12:02:00.631Z,9544
2018-03-27T12:03:09.519Z,11948
2018-03-27T12:04:18.356Z,15696
2018-03-27T12:05:27.476Z,29152
2018-03-27T12:06:36.321Z,39552
2018-03-27T12:07:45.157Z,41344
2018-03-27T12:08:54.044Z,42656
2018-03-27T12:10:02.879Z,42720
2018-03-27T12:11:12.009Z,39232
2018-03-27T12:12:20.844Z,44672
2018-03-27T12:13:29.684Z,39136
2018-03-27T12:14:38.681Z,32608
2018-03-27T12:15:47.512Z,41472
2018-03-27T12:16:56.354Z,40608
2018-03-27T12:18:05.195Z,28928
2018-03-27T12:19:14.035Z,9316
2018-03-27T12:20:23.185Z,9016
2018-03-27T12:21:32.293Z,9772
2018-03-27T12:22:41.132Z,11340
2018-03-27T12:23:49.973Z,24032
2018-03-27T12:24:58.813Z,22336
2018-03-27T12:26:07.804Z,17280
2018-03-27T12:27:16.644Z,17184
2018-03-27T12:28:25.487Z,20800
2018-03-27T12:29:34.327Z,24192
2018-03-27T12:30:43.167Z,13564
2018-03-27T12:31:52.056Z,20896
2018-03-27T12:33:00.894Z,10384
2018-03-27T12:34:09.743Z,8816
2018-03-27T12:35:18.856Z,8304
2018-03-27T12:36:27.695Z,9216
2018-03-27T12:37:36.908Z,17632
2018-03-27T12:38:45.747Z,19872
2018-03-27T12:39:54.585Z,12604
2018-03-27T12:41:03.426Z,10804
2018-03-27T12:42:12.290Z,10652
2018-03-27T12:43:21.154Z,10832
2018-03-27T12:44:29.995Z,9116
2018-03-27T12:45:38.836Z,8504
2018-03-27T12:46:47.949Z,8364
2018-03-27T12:47:56.788Z,7852
2018-03-27T12:49:05.929Z,7836
2018-03-27T12:50:14.768Z,8836
2018-03-27T12:51:23.611Z,10008
2018-03-27T12:52:32.448Z,10940
2018-03-27T12:53:41.297Z,14348
2018-03-27T12:54:50.422Z,15584
2018-03-27T12:55:59.261Z,14928
2018-03-27T12:57:08.101Z,17472
2018-03-27T12:58:16.939Z,16416
2018-03-27T12:59:25.785Z,14252
2018-03-27T13:00:34.997Z,14844
2018-03-27T13:01:43.835Z,16384
2018-03-27T13:02:52.675Z,11932
2018-03-27T13:04:01.514Z,12408
2018-03-27T13:05:10.355Z,11856
2018-03-27T13:06:19.595Z,10472
2018-03-27T13:07:28.706Z,9480
2018-03-27T13:08:37.546Z,9284
2018-03-27T13:09:46.386Z,8992
2018-03-27T13:10:55.224Z,8792
2018-03-27T13:12:04.217Z,10632
2018-03-27T13:13:13.332Z,12024
2018-03-27T13:14:22.170Z,11336
2018-03-27T13:15:31.006Z,10204
2018-03-27T13:16:39.842Z,10020
2018-03-27T13:17:49.157Z,9744
2018-03-27T13:18:58.273Z,10236
2018-03-27T13:20:07.387Z,16032
2018-03-27T13:21:16.225Z,13796
2018-03-27T13:22:25.064Z,14728
2018-03-27T13:23:34.053Z,10820
2018-03-27T13:24:42.844Z,10920
2018-03-27T13:25:51.957Z,10660
2018-03-27T13:27:00.799Z,9928
2018-03-27T13:28:09.637Z,9008
2018-03-27T13:29:18.531Z,8496
2018-03-27T13:30:27.370Z,8132
2018-03-27T13:31:36.210Z,8804
2018-03-27T13:32:45.049Z,8324
2018-03-27T13:33:53.889Z,7436
2018-03-27T13:35:03.150Z,6524
2018-03-27T13:36:11.986Z,5784
2018-03-27T13:37:20.828Z,5004
2018-03-27T13:38:29.668Z,4644
2018-03-27T13:39:38.783Z,4964
2018-03-27T13:40:47.619Z,5440
2018-03-27T13:41:56.458Z,5340
2018-03-27T13:43:05.570Z,5112
2018-03-27T13:44:14.408Z,4892
2018-03-27T13:45:23.533Z,4520
2018-03-27T13:46:32.368Z,4448
2018-03-27T13:47:41.208Z,4684
2018-03-27T13:48:50.045Z,4604
2018-03-27T13:49:58.882Z,4292
2018-03-27T13:51:07.720Z,4372
2018-03-27T13:52:16.938Z,4440
2018-03-27T13:53:25.770Z,4400
2018-03-27T13:54:34.884Z,4044
2018-03-27T13:55:43.723Z,3876
2018-03-27T13:56:52.838Z,3892
2018-03-27T13:58:02.203Z,4144
2018-03-27T13:59:11.040Z,4444
2018-03-27T14:00:19.915Z,4972
2018-03-27T14:01:28.717Z,5220
2018-03-27T14:02:37.548Z,5772
2018-03-27T14:03:46.790Z,6712
2018-03-27T14:04:55.621Z,10380
2018-03-27T14:06:04.457Z,18112
2018-03-27T14:07:13.297Z,19328
2018-03-27T14:08:22.409Z,16096
2018-03-27T14:09:32.049Z,25440
2018-03-27T14:10:40.900Z,13608
2018-03-27T14:11:49.726Z,13196
2018-03-27T14:12:58.563Z,12716
2018-03-27T14:14:07.402Z,9868
2018-03-27T14:15:16.392Z,9168
2018-03-27T14:16:25.227Z,8904
2018-03-27T14:17:34.065Z,8136
2018-03-27T14:18:42.950Z,7404
2018-03-27T14:19:51.745Z,6584
2018-03-27T14:21:00.682Z,5508
2018-03-27T14:22:09.519Z,5400
2018-03-27T14:23:18.359Z,8600
2018-03-27T14:24:27.196Z,7952
2018-03-27T14:25:36.036Z,8904
2018-03-27T14:26:45.122Z,11700
2018-03-27T14:27:54.239Z,12396
2018-03-27T14:29:03.348Z,12596
2018-03-27T14:30:12.185Z,12540
2018-03-27T14:31:21.021Z,12092
2018-03-27T14:32:29.911Z,11776
2018-03-27T14:33:38.748Z,12548
2018-03-27T14:34:48.144Z,9488
2018-03-27T14:35:56.987Z,13756
2018-03-27T14:37:05.823Z,13568
2018-03-27T14:38:14.840Z,10192
2018-03-27T14:39:23.648Z,9388
2018-03-27T14:40:32.766Z,8444
2018-03-27T14:41:41.888Z,8060
2018-03-27T14:42:50.726Z,7708
2018-03-27T14:43:59.566Z,7144
2018-03-27T14:45:08.406Z,6796
2018-03-27T14:46:17.250Z,6732
2018-03-27T14:47:26.635Z,7516
2018-03-27T14:48:35.473Z,8776
2018-03-27T14:49:44.417Z,8808
2018-03-27T14:50:53.254Z,8780
2018-03-27T14:52:02.367Z,9724
2018-03-27T14:53:11.206Z,8004
2018-03-27T14:54:20.045Z,7988
2018-03-27T14:55:28.936Z,8504
2018-03-27T14:56:38.049Z,7896
2018-03-27T14:57:46.886Z,7844
2018-03-27T14:58:55.721Z,7892
2018-03-27T15:00:04.558Z,8024
2018-03-27T15:01:13.446Z,9180
2018-03-27T15:02:22.284Z,9184
2018-03-27T15:03:31.121Z,8808
2018-03-27T15:04:39.959Z,8464
2018-03-27T15:05:48.797Z,8324
2018-03-27T15:06:57.938Z,8484
2018-03-27T15:08:06.776Z,8820
2018-03-27T15:09:15.611Z,9160
2018-03-27T15:10:24.448Z,9220
2018-03-27T15:11:33.285Z,9492
2018-03-27T15:12:42.424Z,8628
2018-03-27T15:13:51.542Z,7952
2018-03-27T15:15:00.656Z,7328
2018-03-27T15:16:09.496Z,6936
2018-03-27T15:17:18.327Z,6788
2018-03-27T15:18:27.214Z,6572
2018-03-27T15:19:36.049Z,6336
2018-03-27T15:20:44.894Z,6008
2018-03-27T15:21:53.726Z,5740
2018-03-27T15:23:02.836Z,5548
2018-03-27T15:24:12.074Z,5352
2018-03-27T15:25:20.912Z,5176
2018-03-27T15:26:29.752Z,5040
2018-03-27T15:27:38.590Z,4972
2018-03-27T15:28:47.427Z,4996
2018-03-27T15:29:56.416Z,5048
2018-03-27T15:31:05.253Z,5048
2018-03-27T15:32:14.087Z,5012
2018-03-27T15:33:22.925Z,5204
2018-03-27T15:34:32.037Z,5004
2018-03-27T15:35:40.877Z,4916
2018-03-27T15:36:49.715Z,4892
2018-03-27T15:37:58.831Z,4796
2018-03-27T15:39:07.669Z,4660
2018-03-27T15:40:16.505Z,4564
2018-03-27T15:41:25.646Z,4488
2018-03-27T15:42:34.483Z,4460
2018-03-27T15:43:43.593Z,4452
2018-03-27T15:44:52.429Z,4460
2018-03-27T15:46:01.270Z,4488
2018-03-27T15:47:10.158Z,4480